sensor_id;sensor_type;location;lat;lon;timestamp;P1;P2;P0
73241;PMS5003;65659;49.234;-2.094;2024-02-26T00:02:19;1;1;
73241;PMS5003;65659;49.234;-2.094;2024-02-26T00:04:45;1;1;
73241;PMS5003;65659;49.234;-2.094;2024-02-26T00:07:10;2;2;
73241;PMS5003;65659;49.234;-2.094;2024-02-26T00:09:36;0;0;
73241;PMS5003;65659;49.234;-2.094;2024-02-26T00:12:01;1;1;
73241;PMS5003;65659;49.234;-2.094;2024-02-26T00:14:27;1;1;
73241;PMS5003;65659;49.234;-2.094;2024-02-26T00:16:52;0;0;
73241;PMS5003;65659;49.234;-2.094;2024-02-26T00:19:18;0;0;
73241;PMS5003;65659;49.234;-2.094;2024-02-26T00:21:43;1;1;
73241;PMS5003;65659;49.234;-2.094;2024-02-26T00:24:09;0;0;
73241;PMS5003;65659;49.234;-2.094;2024-02-26T00:26:34;0;0;
73241;PMS5003;65659;49.234;-2.094;2024-02-26T00:29:00;1;0;
73241;PMS5003;65659;49.234;-2.094;2024-02-26T00:31:25;0;0;
73241;PMS5003;65659;49.234;-2.094;2024-02-26T00:33:50;1;1;
73241;PMS5003;65659;49.234;-2.094;2024-02-26T00:36:15;3;3;
73241;PMS5003;65659;49.234;-2.094;2024-02-26T00:38:40;3;2;
73241;PMS5003;65659;49.234;-2.094;2024-02-26T00:41:06;1;1;
73241;PMS5003;65659;49.234;-2.094;2024-02-26T00:43:31;0;0;
73241;PMS5003;65659;49.234;-2.094;2024-02-26T00:45:56;0;0;
73241;PMS5003;65659;49.234;-2.094;2024-02-26T00:48:22;2;1;
73241;PMS5003;65659;49.234;-2.094;2024-02-26T00:50:48;1;1;
73241;PMS5003;65659;49.234;-2.094;2024-02-26T00:53:13;1;1;
73241;PMS5003;65659;49.234;-2.094;2024-02-26T00:55:39;0;0;
73241;PMS5003;65659;49.234;-2.094;2024-02-26T00:58:05;1;0;
73241;PMS5003;65659;49.234;-2.094;2024-02-26T01:00:30;1;0;
73241;PMS5003;65659;49.234;-2.094;2024-02-26T01:02:55;2;2;
73241;PMS5003;65659;49.234;-2.094;2024-02-26T01:05:20;0;0;
73241;PMS5003;65659;49.234;-2.094;2024-02-26T01:07:46;1;1;
73241;PMS5003;65659;49.234;-2.094;2024-02-26T01:10:10;3;2;
73241;PMS5003;65659;49.234;-2.094;2024-02-26T01:12:35;0;0;
73241;PMS5003;65659;49.234;-2.094;2024-02-26T01:15:01;2;2;
73241;PMS5003;65659;49.234;-2.094;2024-02-26T01:17:26;0;0;
73241;PMS5003;65659;49.234;-2.094;2024-02-26T01:19:51;1;0;
73241;PMS5003;65659;49.234;-2.094;2024-02-26T01:22:16;1;1;
73241;PMS5003;65659;49.234;-2.094;2024-02-26T01:24:41;0;0;
73241;PMS5003;65659;49.234;-2.094;2024-02-26T01:27:06;0;0;
73241;PMS5003;65659;49.234;-2.094;2024-02-26T01:29:31;2;2;
73241;PMS5003;65659;49.234;-2.094;2024-02-26T01:31:56;1;1;
73241;PMS5003;65659;49.234;-2.094;2024-02-26T01:34:21;2;2;
73241;PMS5003;65659;49.234;-2.094;2024-02-26T01:36:46;2;1;
73241;PMS5003;65659;49.234;-2.094;2024-02-26T01:39:11;2;2;
73241;PMS5003;65659;49.234;-2.094;2024-02-26T01:41:38;5;4;
73241;PMS5003;65659;49.234;-2.094;2024-02-26T01:44:02;1;0;
73241;PMS5003;65659;49.234;-2.094;2024-02-26T01:46:27;0;0;
73241;PMS5003;65659;49.234;-2.094;2024-02-26T01:48:52;2;2;
73241;PMS5003;65659;49.234;-2.094;2024-02-26T01:51:17;1;1;
73241;PMS5003;65659;49.234;-2.094;2024-02-26T01:53:42;3;2;
73241;PMS5003;65659;49.234;-2.094;2024-02-26T01:56:08;1;1;
73241;PMS5003;65659;49.234;-2.094;2024-02-26T01:58:33;1;0;
73241;PMS5003;65659;49.234;-2.094;2024-02-26T02:00:58;1;1;
73241;PMS5003;65659;49.234;-2.094;2024-02-26T02:03:23;1;1;
73241;PMS5003;65659;49.234;-2.094;2024-02-26T02:05:48;0;0;
73241;PMS5003;65659;49.234;-2.094;2024-02-26T02:08:13;2;2;
73241;PMS5003;65659;49.234;-2.094;2024-02-26T02:10:39;3;3;
73241;PMS5003;65659;49.234;-2.094;2024-02-26T02:13:04;2;1;
73241;PMS5003;65659;49.234;-2.094;2024-02-26T02:15:29;2;1;
73241;PMS5003;65659;49.234;-2.094;2024-02-26T02:17:54;2;2;
73241;PMS5003;65659;49.234;-2.094;2024-02-26T02:20:19;0;0;
73241;PMS5003;65659;49.234;-2.094;2024-02-26T02:22:45;0;0;
73241;PMS5003;65659;49.234;-2.094;2024-02-26T02:25:09;1;1;
73241;PMS5003;65659;49.234;-2.094;2024-02-26T02:27:34;1;1;
73241;PMS5003;65659;49.234;-2.094;2024-02-26T02:30:00;0;0;
73241;PMS5003;65659;49.234;-2.094;2024-02-26T02:32:25;1;0;
73241;PMS5003;65659;49.234;-2.094;2024-02-26T02:34:50;4;2;
73241;PMS5003;65659;49.234;-2.094;2024-02-26T02:37:15;3;0;
73241;PMS5003;65659;49.234;-2.094;2024-02-26T02:39:40;2;1;
73241;PMS5003;65659;49.234;-2.094;2024-02-26T02:42:05;1;0;
73241;PMS5003;65659;49.234;-2.094;2024-02-26T02:44:30;1;0;
73241;PMS5003;65659;49.234;-2.094;2024-02-26T02:46:55;1;1;
73241;PMS5003;65659;49.234;-2.094;2024-02-26T02:49:20;1;1;
73241;PMS5003;65659;49.234;-2.094;2024-02-26T02:51:45;0;0;
73241;PMS5003;65659;49.234;-2.094;2024-02-26T02:54:10;1;0;
73241;PMS5003;65659;49.234;-2.094;2024-02-26T02:56:35;0;0;
73241;PMS5003;65659;49.234;-2.094;2024-02-26T02:59:01;2;1;
73241;PMS5003;65659;49.234;-2.094;2024-02-26T03:01:26;0;0;
73241;PMS5003;65659;49.234;-2.094;2024-02-26T03:03:51;2;1;
73241;PMS5003;65659;49.234;-2.094;2024-02-26T03:06:16;0;0;
73241;PMS5003;65659;49.234;-2.094;2024-02-26T03:08:41;0;0;
73241;PMS5003;65659;49.234;-2.094;2024-02-26T03:11:06;1;1;
73241;PMS5003;65659;49.234;-2.094;2024-02-26T03:13:31;2;2;
73241;PMS5003;65659;49.234;-2.094;2024-02-26T03:15:56;0;0;
73241;PMS5003;65659;49.234;-2.094;2024-02-26T03:18:21;0;0;
73241;PMS5003;65659;49.234;-2.094;2024-02-26T03:20:46;1;1;
73241;PMS5003;65659;49.234;-2.094;2024-02-26T03:23:11;2;1;
73241;PMS5003;65659;49.234;-2.094;2024-02-26T03:25:36;1;1;
73241;PMS5003;65659;49.234;-2.094;2024-02-26T03:28:01;1;1;
73241;PMS5003;65659;49.234;-2.094;2024-02-26T03:30:26;2;2;
73241;PMS5003;65659;49.234;-2.094;2024-02-26T03:32:52;1;1;
73241;PMS5003;65659;49.234;-2.094;2024-02-26T03:35:17;2;1;
73241;PMS5003;65659;49.234;-2.094;2024-02-26T03:37:42;5;4;
73241;PMS5003;65659;49.234;-2.094;2024-02-26T03:40:07;1;0;
73241;PMS5003;65659;49.234;-2.094;2024-02-26T03:42:35;0;0;
73241;PMS5003;65659;49.234;-2.094;2024-02-26T03:44:57;1;0;
73241;PMS5003;65659;49.234;-2.094;2024-02-26T03:47:23;2;2;
73241;PMS5003;65659;49.234;-2.094;2024-02-26T03:49:48;1;1;
73241;PMS5003;65659;49.234;-2.094;2024-02-26T03:52:13;2;2;
73241;PMS5003;65659;49.234;-2.094;2024-02-26T03:54:38;3;3;
73241;PMS5003;65659;49.234;-2.094;2024-02-26T03:57:03;1;1;
73241;PMS5003;65659;49.234;-2.094;2024-02-26T03:59:28;3;3;
73241;PMS5003;65659;49.234;-2.094;2024-02-26T04:01:54;1;1;
73241;PMS5003;65659;49.234;-2.094;2024-02-26T04:04:19;1;0;
73241;PMS5003;65659;49.234;-2.094;2024-02-26T04:06:45;1;1;
73241;PMS5003;65659;49.234;-2.094;2024-02-26T04:09:10;2;2;
73241;PMS5003;65659;49.234;-2.094;2024-02-26T04:11:35;2;1;
73241;PMS5003;65659;49.234;-2.094;2024-02-26T04:14:00;2;2;
73241;PMS5003;65659;49.234;-2.094;2024-02-26T04:16:25;3;3;
73241;PMS5003;65659;49.234;-2.094;2024-02-26T04:18:51;2;2;
73241;PMS5003;65659;49.234;-2.094;2024-02-26T04:21:16;3;3;
73241;PMS5003;65659;49.234;-2.094;2024-02-26T04:23:41;0;0;
73241;PMS5003;65659;49.234;-2.094;2024-02-26T04:26:06;1;1;
73241;PMS5003;65659;49.234;-2.094;2024-02-26T04:28:31;1;1;
73241;PMS5003;65659;49.234;-2.094;2024-02-26T04:30:57;1;1;
73241;PMS5003;65659;49.234;-2.094;2024-02-26T04:33:21;3;3;
73241;PMS5003;65659;49.234;-2.094;2024-02-26T04:35:46;4;4;
73241;PMS5003;65659;49.234;-2.094;2024-02-26T04:38:12;3;2;
73241;PMS5003;65659;49.234;-2.094;2024-02-26T04:40:37;2;1;
73241;PMS5003;65659;49.234;-2.094;2024-02-26T04:43:02;3;2;
73241;PMS5003;65659;49.234;-2.094;2024-02-26T04:45:27;2;2;
73241;PMS5003;65659;49.234;-2.094;2024-02-26T04:47:53;1;1;
73241;PMS5003;65659;49.234;-2.094;2024-02-26T04:50:18;1;1;
73241;PMS5003;65659;49.234;-2.094;2024-02-26T04:52:43;2;1;
73241;PMS5003;65659;49.234;-2.094;2024-02-26T04:55:08;2;2;
73241;PMS5003;65659;49.234;-2.094;2024-02-26T04:57:33;1;1;
73241;PMS5003;65659;49.234;-2.094;2024-02-26T04:59:59;4;3;
73241;PMS5003;65659;49.234;-2.094;2024-02-26T05:02:24;2;2;
73241;PMS5003;65659;49.234;-2.094;2024-02-26T05:04:49;3;2;
73241;PMS5003;65659;49.234;-2.094;2024-02-26T05:07:15;4;3;
73241;PMS5003;65659;49.234;-2.094;2024-02-26T05:09:40;5;4;
73241;PMS5003;65659;49.234;-2.094;2024-02-26T05:12:05;4;3;
73241;PMS5003;65659;49.234;-2.094;2024-02-26T05:14:30;4;4;
73241;PMS5003;65659;49.234;-2.094;2024-02-26T05:16:56;4;4;
73241;PMS5003;65659;49.234;-2.094;2024-02-26T05:19:21;8;7;
73241;PMS5003;65659;49.234;-2.094;2024-02-26T05:21:47;7;6;
73241;PMS5003;65659;49.234;-2.094;2024-02-26T05:24:12;5;5;
73241;PMS5003;65659;49.234;-2.094;2024-02-26T05:26:37;9;9;
73241;PMS5003;65659;49.234;-2.094;2024-02-26T05:29:02;9;6;
73241;PMS5003;65659;49.234;-2.094;2024-02-26T05:31:27;9;6;
73241;PMS5003;65659;49.234;-2.094;2024-02-26T05:33:53;8;7;
73241;PMS5003;65659;49.234;-2.094;2024-02-26T05:36:18;9;8;
73241;PMS5003;65659;49.234;-2.094;2024-02-26T05:38:43;12;12;
73241;PMS5003;65659;49.234;-2.094;2024-02-26T05:41:09;9;8;
73241;PMS5003;65659;49.234;-2.094;2024-02-26T05:43:34;6;5;
73241;PMS5003;65659;49.234;-2.094;2024-02-26T05:45:59;8;6;
73241;PMS5003;65659;49.234;-2.094;2024-02-26T05:48:24;8;8;
73241;PMS5003;65659;49.234;-2.094;2024-02-26T05:50:49;10;8;
73241;PMS5003;65659;49.234;-2.094;2024-02-26T05:53:15;9;7;
73241;PMS5003;65659;49.234;-2.094;2024-02-26T05:55:40;8;7;
73241;PMS5003;65659;49.234;-2.094;2024-02-26T05:58:05;11;9;
73241;PMS5003;65659;49.234;-2.094;2024-02-26T06:00:30;13;10;
73241;PMS5003;65659;49.234;-2.094;2024-02-26T06:02:55;8;8;
73241;PMS5003;65659;49.234;-2.094;2024-02-26T06:05:20;11;10;
73241;PMS5003;65659;49.234;-2.094;2024-02-26T06:07:46;9;8;
73241;PMS5003;65659;49.234;-2.094;2024-02-26T06:10:11;7;6;
73241;PMS5003;65659;49.234;-2.094;2024-02-26T06:12:36;10;10;
73241;PMS5003;65659;49.234;-2.094;2024-02-26T06:15:02;11;8;
73241;PMS5003;65659;49.234;-2.094;2024-02-26T06:17:27;11;10;
73241;PMS5003;65659;49.234;-2.094;2024-02-26T06:19:52;10;9;
73241;PMS5003;65659;49.234;-2.094;2024-02-26T06:22:18;8;8;
73241;PMS5003;65659;49.234;-2.094;2024-02-26T06:24:43;9;9;
73241;PMS5003;65659;49.234;-2.094;2024-02-26T06:27:09;8;8;
73241;PMS5003;65659;49.234;-2.094;2024-02-26T06:29:34;10;7;
73241;PMS5003;65659;49.234;-2.094;2024-02-26T06:31:59;10;9;
73241;PMS5003;65659;49.234;-2.094;2024-02-26T06:34:24;10;8;
73241;PMS5003;65659;49.234;-2.094;2024-02-26T06:36:50;9;9;
73241;PMS5003;65659;49.234;-2.094;2024-02-26T06:39:15;11;11;
73241;PMS5003;65659;49.234;-2.094;2024-02-26T06:41:41;8;8;
73241;PMS5003;65659;49.234;-2.094;2024-02-26T06:44:06;11;10;
73241;PMS5003;65659;49.234;-2.094;2024-02-26T06:46:32;8;7;
73241;PMS5003;65659;49.234;-2.094;2024-02-26T06:48:57;10;9;
73241;PMS5003;65659;49.234;-2.094;2024-02-26T06:51:23;10;9;
73241;PMS5003;65659;49.234;-2.094;2024-02-26T06:53:48;11;11;
73241;PMS5003;65659;49.234;-2.094;2024-02-26T06:56:14;10;9;
73241;PMS5003;65659;49.234;-2.094;2024-02-26T06:58:39;12;12;
73241;PMS5003;65659;49.234;-2.094;2024-02-26T07:01:05;8;7;
73241;PMS5003;65659;49.234;-2.094;2024-02-26T07:03:30;13;12;
73241;PMS5003;65659;49.234;-2.094;2024-02-26T07:05:55;13;12;
73241;PMS5003;65659;49.234;-2.094;2024-02-26T07:08:20;18;16;
73241;PMS5003;65659;49.234;-2.094;2024-02-26T07:10:46;9;9;
73241;PMS5003;65659;49.234;-2.094;2024-02-26T07:13:11;13;12;
73241;PMS5003;65659;49.234;-2.094;2024-02-26T07:15:37;12;11;
73241;PMS5003;65659;49.234;-2.094;2024-02-26T07:18:02;16;15;
73241;PMS5003;65659;49.234;-2.094;2024-02-26T07:20:28;12;11;
73241;PMS5003;65659;49.234;-2.094;2024-02-26T07:22:53;15;13;
73241;PMS5003;65659;49.234;-2.094;2024-02-26T07:25:18;8;7;
73241;PMS5003;65659;49.234;-2.094;2024-02-26T07:27:44;10;8;
73241;PMS5003;65659;49.234;-2.094;2024-02-26T07:30:10;8;7;
73241;PMS5003;65659;49.234;-2.094;2024-02-26T07:32:35;12;10;
73241;PMS5003;65659;49.234;-2.094;2024-02-26T07:35:01;15;13;
73241;PMS5003;65659;49.234;-2.094;2024-02-26T07:37:26;11;11;
73241;PMS5003;65659;49.234;-2.094;2024-02-26T07:39:51;12;12;
73241;PMS5003;65659;49.234;-2.094;2024-02-26T07:42:17;10;9;
73241;PMS5003;65659;49.234;-2.094;2024-02-26T07:44:42;10;10;
73241;PMS5003;65659;49.234;-2.094;2024-02-26T07:47:07;14;12;
73241;PMS5003;65659;49.234;-2.094;2024-02-26T07:49:33;11;11;
73241;PMS5003;65659;49.234;-2.094;2024-02-26T07:51:58;13;10;
73241;PMS5003;65659;49.234;-2.094;2024-02-26T07:54:24;13;11;
73241;PMS5003;65659;49.234;-2.094;2024-02-26T07:59:21;11;9;
73241;PMS5003;65659;49.234;-2.094;2024-02-26T08:01:41;10;10;
73241;PMS5003;65659;49.234;-2.094;2024-02-26T08:04:07;11;9;
73241;PMS5003;65659;49.234;-2.094;2024-02-26T08:06:33;12;12;
73241;PMS5003;65659;49.234;-2.094;2024-02-26T08:08:58;8;7;
73241;PMS5003;65659;49.234;-2.094;2024-02-26T08:11:26;10;10;
73241;PMS5003;65659;49.234;-2.094;2024-02-26T08:13:49;11;11;
73241;PMS5003;65659;49.234;-2.094;2024-02-26T08:16:14;11;10;
73241;PMS5003;65659;49.234;-2.094;2024-02-26T08:18:40;8;7;
73241;PMS5003;65659;49.234;-2.094;2024-02-26T08:21:05;7;7;
73241;PMS5003;65659;49.234;-2.094;2024-02-26T08:23:31;12;11;
73241;PMS5003;65659;49.234;-2.094;2024-02-26T08:25:56;10;10;
73241;PMS5003;65659;49.234;-2.094;2024-02-26T08:28:21;9;8;
73241;PMS5003;65659;49.234;-2.094;2024-02-26T08:30:46;10;7;
73241;PMS5003;65659;49.234;-2.094;2024-02-26T08:33:12;12;11;
73241;PMS5003;65659;49.234;-2.094;2024-02-26T08:35:42;8;7;
73241;PMS5003;65659;49.234;-2.094;2024-02-26T08:38:03;10;9;
73241;PMS5003;65659;49.234;-2.094;2024-02-26T08:40:28;9;8;
73241;PMS5003;65659;49.234;-2.094;2024-02-26T08:42:53;11;9;
73241;PMS5003;65659;49.234;-2.094;2024-02-26T08:45:19;8;7;
73241;PMS5003;65659;49.234;-2.094;2024-02-26T08:47:46;9;8;
73241;PMS5003;65659;49.234;-2.094;2024-02-26T08:50:09;9;9;
73241;PMS5003;65659;49.234;-2.094;2024-02-26T08:52:41;8;7;
73241;PMS5003;65659;49.234;-2.094;2024-02-26T08:54:59;14;13;
73241;PMS5003;65659;49.234;-2.094;2024-02-26T08:57:26;9;8;
73241;PMS5003;65659;49.234;-2.094;2024-02-26T08:59:53;9;8;
73241;PMS5003;65659;49.234;-2.094;2024-02-26T09:02:18;6;5;
73241;PMS5003;65659;49.234;-2.094;2024-02-26T09:04:43;9;7;
73241;PMS5003;65659;49.234;-2.094;2024-02-26T09:07:08;7;6;
73241;PMS5003;65659;49.234;-2.094;2024-02-26T09:09:32;7;7;
73241;PMS5003;65659;49.234;-2.094;2024-02-26T09:12:00;9;7;
73241;PMS5003;65659;49.234;-2.094;2024-02-26T09:14:27;13;11;
73241;PMS5003;65659;49.234;-2.094;2024-02-26T09:16:50;8;6;
73241;PMS5003;65659;49.234;-2.094;2024-02-26T09:19:16;6;5;
73241;PMS5003;65659;49.234;-2.094;2024-02-26T09:21:44;12;11;
73241;PMS5003;65659;49.234;-2.094;2024-02-26T09:24:08;9;7;
73241;PMS5003;65659;49.234;-2.094;2024-02-26T09:26:31;9;8;
73241;PMS5003;65659;49.234;-2.094;2024-02-26T09:28:55;8;6;
73241;PMS5003;65659;49.234;-2.094;2024-02-26T09:31:23;6;5;
73241;PMS5003;65659;49.234;-2.094;2024-02-26T09:33:44;7;6;
73241;PMS5003;65659;49.234;-2.094;2024-02-26T09:36:20;9;8;
73241;PMS5003;65659;49.234;-2.094;2024-02-26T09:38:36;11;10;
73241;PMS5003;65659;49.234;-2.094;2024-02-26T09:41:01;10;8;
73241;PMS5003;65659;49.234;-2.094;2024-02-26T09:43:26;7;6;
73241;PMS5003;65659;49.234;-2.094;2024-02-26T09:45:53;5;4;
73241;PMS5003;65659;49.234;-2.094;2024-02-26T09:48:16;9;9;
73241;PMS5003;65659;49.234;-2.094;2024-02-26T09:50:43;8;8;
73241;PMS5003;65659;49.234;-2.094;2024-02-26T09:53:09;7;6;
73241;PMS5003;65659;49.234;-2.094;2024-02-26T09:55:33;4;4;
73241;PMS5003;65659;49.234;-2.094;2024-02-26T09:58:00;7;5;
73241;PMS5003;65659;49.234;-2.094;2024-02-26T10:00:26;4;4;
73241;PMS5003;65659;49.234;-2.094;2024-02-26T10:02:49;10;8;
73241;PMS5003;65659;49.234;-2.094;2024-02-26T10:05:14;4;3;
73241;PMS5003;65659;49.234;-2.094;2024-02-26T10:07:39;7;6;
73241;PMS5003;65659;49.234;-2.094;2024-02-26T10:10:05;4;4;
73241;PMS5003;65659;49.234;-2.094;2024-02-26T10:12:30;6;5;
73241;PMS5003;65659;49.234;-2.094;2024-02-26T10:14:55;5;5;
73241;PMS5003;65659;49.234;-2.094;2024-02-26T10:17:23;7;6;
73241;PMS5003;65659;49.234;-2.094;2024-02-26T10:19:48;8;7;
73241;PMS5003;65659;49.234;-2.094;2024-02-26T10:22:13;5;4;
73241;PMS5003;65659;49.234;-2.094;2024-02-26T10:24:36;6;5;
73241;PMS5003;65659;49.234;-2.094;2024-02-26T10:27:02;5;4;
73241;PMS5003;65659;49.234;-2.094;2024-02-26T10:29:28;5;5;
73241;PMS5003;65659;49.234;-2.094;2024-02-26T10:31:55;4;3;
73241;PMS5003;65659;49.234;-2.094;2024-02-26T10:34:17;3;3;
73241;PMS5003;65659;49.234;-2.094;2024-02-26T10:36:44;8;6;
73241;PMS5003;65659;49.234;-2.094;2024-02-26T10:39:09;6;6;
73241;PMS5003;65659;49.234;-2.094;2024-02-26T10:41:35;7;5;
73241;PMS5003;65659;49.234;-2.094;2024-02-26T10:43:59;7;7;
73241;PMS5003;65659;49.234;-2.094;2024-02-26T10:46:24;8;7;
73241;PMS5003;65659;49.234;-2.094;2024-02-26T10:48:51;5;5;
73241;PMS5003;65659;49.234;-2.094;2024-02-26T10:51:17;5;5;
73241;PMS5003;65659;49.234;-2.094;2024-02-26T10:53:43;7;6;
73241;PMS5003;65659;49.234;-2.094;2024-02-26T10:56:06;4;4;
73241;PMS5003;65659;49.234;-2.094;2024-02-26T10:58:32;6;6;
73241;PMS5003;65659;49.234;-2.094;2024-02-26T11:00:59;5;4;
73241;PMS5003;65659;49.234;-2.094;2024-02-26T11:03:22;8;8;
73241;PMS5003;65659;49.234;-2.094;2024-02-26T11:05:47;6;6;
73241;PMS5003;65659;49.234;-2.094;2024-02-26T11:08:13;3;3;
73241;PMS5003;65659;49.234;-2.094;2024-02-26T11:10:40;6;6;
73241;PMS5003;65659;49.234;-2.094;2024-02-26T11:13:14;5;5;
73241;PMS5003;65659;49.234;-2.094;2024-02-26T11:15:31;5;5;
73241;PMS5003;65659;49.234;-2.094;2024-02-26T11:17:55;5;5;
73241;PMS5003;65659;49.234;-2.094;2024-02-26T11:20:21;9;6;
73241;PMS5003;65659;49.234;-2.094;2024-02-26T11:25:11;4;4;
73241;PMS5003;65659;49.234;-2.094;2024-02-26T11:27:39;5;4;
73241;PMS5003;65659;49.234;-2.094;2024-02-26T11:30:01;4;4;
73241;PMS5003;65659;49.234;-2.094;2024-02-26T11:32:28;3;2;
73241;PMS5003;65659;49.234;-2.094;2024-02-26T11:34:50;4;4;
73241;PMS5003;65659;49.234;-2.094;2024-02-26T11:37:17;4;4;
73241;PMS5003;65659;49.234;-2.094;2024-02-26T11:39:41;3;3;
73241;PMS5003;65659;49.234;-2.094;2024-02-26T11:42:07;4;2;
73241;PMS5003;65659;49.234;-2.094;2024-02-26T11:44:31;9;6;
73241;PMS5003;65659;49.234;-2.094;2024-02-26T11:46:57;4;4;
73241;PMS5003;65659;49.234;-2.094;2024-02-26T11:49:31;5;5;
73241;PMS5003;65659;49.234;-2.094;2024-02-26T11:51:50;4;4;
73241;PMS5003;65659;49.234;-2.094;2024-02-26T11:54:11;4;3;
73241;PMS5003;65659;49.234;-2.094;2024-02-26T11:56:40;5;4;
73241;PMS5003;65659;49.234;-2.094;2024-02-26T11:59:03;5;5;
73241;PMS5003;65659;49.234;-2.094;2024-02-26T12:03:54;3;3;
73241;PMS5003;65659;49.234;-2.094;2024-02-26T12:06:17;3;3;
73241;PMS5003;65659;49.234;-2.094;2024-02-26T12:08:44;3;3;
73241;PMS5003;65659;49.234;-2.094;2024-02-26T12:13:34;3;3;
73241;PMS5003;65659;49.234;-2.094;2024-02-26T12:15:59;4;3;
73241;PMS5003;65659;49.234;-2.094;2024-02-26T12:18:24;6;6;
73241;PMS5003;65659;49.234;-2.094;2024-02-26T12:23:15;6;5;
73241;PMS5003;65659;49.234;-2.094;2024-02-26T12:25:40;3;2;
73241;PMS5003;65659;49.234;-2.094;2024-02-26T12:28:06;3;3;
73241;PMS5003;65659;49.234;-2.094;2024-02-26T12:30:30;6;4;
73241;PMS5003;65659;49.234;-2.094;2024-02-26T12:32:55;3;2;
73241;PMS5003;65659;49.234;-2.094;2024-02-26T12:35:23;4;4;
73241;PMS5003;65659;49.234;-2.094;2024-02-26T12:37:55;4;4;
73241;PMS5003;65659;49.234;-2.094;2024-02-26T12:40:13;4;3;
73241;PMS5003;65659;49.234;-2.094;2024-02-26T12:42:39;2;2;
73241;PMS5003;65659;49.234;-2.094;2024-02-26T12:45:08;6;5;
73241;PMS5003;65659;49.234;-2.094;2024-02-26T12:47:27;4;4;
73241;PMS5003;65659;49.234;-2.094;2024-02-26T12:49:52;4;4;
73241;PMS5003;65659;49.234;-2.094;2024-02-26T12:52:18;2;2;
73241;PMS5003;65659;49.234;-2.094;2024-02-26T12:54:41;2;2;
73241;PMS5003;65659;49.234;-2.094;2024-02-26T12:57:08;3;3;
73241;PMS5003;65659;49.234;-2.094;2024-02-26T12:59:32;4;4;
73241;PMS5003;65659;49.234;-2.094;2024-02-26T13:01:57;2;2;
73241;PMS5003;65659;49.234;-2.094;2024-02-26T13:04:26;4;4;
73241;PMS5003;65659;49.234;-2.094;2024-02-26T13:06:48;4;3;
73241;PMS5003;65659;49.234;-2.094;2024-02-26T13:09:13;3;3;
73241;PMS5003;65659;49.234;-2.094;2024-02-26T13:11:37;4;3;
73241;PMS5003;65659;49.234;-2.094;2024-02-26T13:14:02;4;3;
73241;PMS5003;65659;49.234;-2.094;2024-02-26T13:16:27;2;1;
73241;PMS5003;65659;49.234;-2.094;2024-02-26T13:18:52;2;2;
73241;PMS5003;65659;49.234;-2.094;2024-02-26T13:21:17;3;3;
73241;PMS5003;65659;49.234;-2.094;2024-02-26T13:26:11;3;3;
73241;PMS5003;65659;49.234;-2.094;2024-02-26T13:28:33;3;3;
73241;PMS5003;65659;49.234;-2.094;2024-02-26T13:31:01;3;2;
73241;PMS5003;65659;49.234;-2.094;2024-02-26T13:33:23;3;3;
73241;PMS5003;65659;49.234;-2.094;2024-02-26T13:35:51;9;8;
73241;PMS5003;65659;49.234;-2.094;2024-02-26T13:38:18;3;3;
73241;PMS5003;65659;49.234;-2.094;2024-02-26T13:40:39;3;3;
73241;PMS5003;65659;49.234;-2.094;2024-02-26T13:43:03;4;4;
73241;PMS5003;65659;49.234;-2.094;2024-02-26T13:45:28;2;2;
73241;PMS5003;65659;49.234;-2.094;2024-02-26T13:47:56;3;3;
73241;PMS5003;65659;49.234;-2.094;2024-02-26T13:50:22;4;4;
73241;PMS5003;65659;49.234;-2.094;2024-02-26T13:52:43;4;3;
73241;PMS5003;65659;49.234;-2.094;2024-02-26T13:55:10;4;3;
73241;PMS5003;65659;49.234;-2.094;2024-02-26T13:57:35;3;3;
73241;PMS5003;65659;49.234;-2.094;2024-02-26T14:00:08;3;2;
73241;PMS5003;65659;49.234;-2.094;2024-02-26T14:02:25;3;3;
73241;PMS5003;65659;49.234;-2.094;2024-02-26T14:04:50;5;4;
73241;PMS5003;65659;49.234;-2.094;2024-02-26T14:07:18;3;3;
73241;PMS5003;65659;49.234;-2.094;2024-02-26T14:09:45;2;2;
73241;PMS5003;65659;49.234;-2.094;2024-02-26T14:12:07;2;2;
73241;PMS5003;65659;49.234;-2.094;2024-02-26T14:14:32;2;2;
73241;PMS5003;65659;49.234;-2.094;2024-02-26T14:16:55;5;3;
73241;PMS5003;65659;49.234;-2.094;2024-02-26T14:19:23;4;4;
73241;PMS5003;65659;49.234;-2.094;2024-02-26T14:21:47;2;2;
73241;PMS5003;65659;49.234;-2.094;2024-02-26T14:24:13;3;2;
73241;PMS5003;65659;49.234;-2.094;2024-02-26T14:26:39;3;2;
73241;PMS5003;65659;49.234;-2.094;2024-02-26T14:29:02;5;3;
73241;PMS5003;65659;49.234;-2.094;2024-02-26T14:31:30;2;2;
73241;PMS5003;65659;49.234;-2.094;2024-02-26T14:33:54;5;5;
73241;PMS5003;65659;49.234;-2.094;2024-02-26T14:36:19;3;3;
73241;PMS5003;65659;49.234;-2.094;2024-02-26T14:38:44;4;3;
73241;PMS5003;65659;49.234;-2.094;2024-02-26T14:41:11;7;5;
73241;PMS5003;65659;49.234;-2.094;2024-02-26T14:43:35;3;3;
73241;PMS5003;65659;49.234;-2.094;2024-02-26T14:46:01;3;3;
73241;PMS5003;65659;49.234;-2.094;2024-02-26T14:48:26;5;4;
73241;PMS5003;65659;49.234;-2.094;2024-02-26T14:50:51;3;2;
73241;PMS5003;65659;49.234;-2.094;2024-02-26T14:53:17;1;1;
73241;PMS5003;65659;49.234;-2.094;2024-02-26T14:55:41;3;2;
73241;PMS5003;65659;49.234;-2.094;2024-02-26T14:58:05;2;2;
73241;PMS5003;65659;49.234;-2.094;2024-02-26T15:00:31;3;1;
73241;PMS5003;65659;49.234;-2.094;2024-02-26T15:02:56;3;3;
73241;PMS5003;65659;49.234;-2.094;2024-02-26T15:05:22;4;3;
73241;PMS5003;65659;49.234;-2.094;2024-02-26T15:07:48;3;3;
73241;PMS5003;65659;49.234;-2.094;2024-02-26T15:10:12;2;2;
73241;PMS5003;65659;49.234;-2.094;2024-02-26T15:12:38;3;1;
73241;PMS5003;65659;49.234;-2.094;2024-02-26T15:15:04;1;1;
73241;PMS5003;65659;49.234;-2.094;2024-02-26T15:17:30;2;2;
73241;PMS5003;65659;49.234;-2.094;2024-02-26T15:19:55;2;2;
73241;PMS5003;65659;49.234;-2.094;2024-02-26T15:22:20;2;2;
73241;PMS5003;65659;49.234;-2.094;2024-02-26T15:24:47;4;2;
73241;PMS5003;65659;49.234;-2.094;2024-02-26T15:27:10;3;3;
73241;PMS5003;65659;49.234;-2.094;2024-02-26T15:29:37;1;1;
73241;PMS5003;65659;49.234;-2.094;2024-02-26T15:32:03;2;0;
73241;PMS5003;65659;49.234;-2.094;2024-02-26T15:34:27;3;3;
73241;PMS5003;65659;49.234;-2.094;2024-02-26T15:36:53;2;2;
73241;PMS5003;65659;49.234;-2.094;2024-02-26T15:39:17;2;2;
73241;PMS5003;65659;49.234;-2.094;2024-02-26T15:41:44;2;2;
73241;PMS5003;65659;49.234;-2.094;2024-02-26T15:44:10;2;2;
73241;PMS5003;65659;49.234;-2.094;2024-02-26T15:46:39;3;3;
73241;PMS5003;65659;49.234;-2.094;2024-02-26T15:49:00;3;2;
73241;PMS5003;65659;49.234;-2.094;2024-02-26T15:51:26;1;1;
73241;PMS5003;65659;49.234;-2.094;2024-02-26T15:53:51;2;1;
73241;PMS5003;65659;49.234;-2.094;2024-02-26T15:56:17;2;2;
73241;PMS5003;65659;49.234;-2.094;2024-02-26T15:58:44;1;1;
73241;PMS5003;65659;49.234;-2.094;2024-02-26T16:01:07;1;1;
73241;PMS5003;65659;49.234;-2.094;2024-02-26T16:03:36;2;2;
73241;PMS5003;65659;49.234;-2.094;2024-02-26T16:05:58;1;1;
73241;PMS5003;65659;49.234;-2.094;2024-02-26T16:08:23;4;4;
73241;PMS5003;65659;49.234;-2.094;2024-02-26T16:10:49;2;2;
73241;PMS5003;65659;49.234;-2.094;2024-02-26T16:13:15;2;2;
73241;PMS5003;65659;49.234;-2.094;2024-02-26T16:15:43;4;4;
73241;PMS5003;65659;49.234;-2.094;2024-02-26T16:18:06;2;2;
73241;PMS5003;65659;49.234;-2.094;2024-02-26T16:20:31;2;2;
73241;PMS5003;65659;49.234;-2.094;2024-02-26T16:22:57;4;2;
73241;PMS5003;65659;49.234;-2.094;2024-02-26T16:25:23;1;1;
73241;PMS5003;65659;49.234;-2.094;2024-02-26T16:27:48;4;3;
73241;PMS5003;65659;49.234;-2.094;2024-02-26T16:30:13;3;3;
73241;PMS5003;65659;49.234;-2.094;2024-02-26T16:32:40;2;1;